Coastal Nomad — WDC6439 — position and weather

sailwx.info

Track history (hours):
 
Tides and Currents Weather Stations Pressure Air Temp Water Temp Dewpoint Dewpoint Depression Visibility Wind Speed Wind Dir Waves Ship Positions

Coastal Nomad

Owner: Coastal Transportation, Inc., Seattle, WA. More information available from US FCC via Universal Licensing System and Coast Guard Vessel Documentation Center.

Last reported at 2016-Jun-12 01:08 UTC. Time now 2016-Jun-30 03:25 UTC.
Position N 51°03' W 127°58'.
Warning: this ship's position is 18 days out of date.

Length 74 m; draft 4.2 m.

Type: Cargo ship. MMSI: 303683000.

Date/timePositionNaut miles runAvg speedWind from/ knotsBaromVisibWave heightAir tempDewpointWater temp
2016-Jun-12 01:08N 51°03' W 127°58'611.3
2016-Jun-12 00:33N 50°59' W 127°50'1211.9
2016-Jun-11 23:33N 50°53' W 127°34'1212.1
2016-Jun-11 22:33N 50°47' W 127°17'1212.2
2016-Jun-11 21:32N 50°43' W 126°59'1212.1
2016-Jun-11 20:32N 50°36' W 126°43'5111.9
2016-Jun-11 16:17N 50°20' W 125°27'811.1
2016-Jun-11 15:33N 50°13' W 125°22'10 9.6
2016-Jun-11 14:34N 50°04' W 125°16'9 9.2
2016-Jun-11 13:33N 49°57' W 125°07'1312.6
2016-Jun-11 12:34N 49°49' W 124°52'1212.4
2016-Jun-11 11:33N 49°41' W 124°38'1212.3
2016-Jun-11 10:34N 49°34' W 124°22'1212.3
2016-Jun-11 09:34N 49°27' W 124°06'1212.3
2016-Jun-11 08:33N 49°20' W 123°51'1211.7
2016-Jun-11 07:33N 49°13' W 123°37'1212.3
2016-Jun-11 06:34N 49°05' W 123°23'1211.9
2016-Jun-11 05:33N 48°57' W 123°09'1312.6
2016-Jun-11 04:33N 48°49' W 122°54'1211.9
2016-Jun-11 03:34N 48°40' W 122°42'1414.4
2016-Jun-11 02:34N 48°26' W 122°44'1211.8
2016-Jun-11 01:34N 48°14' W 122°48'10 9.5
2016-Jun-11 00:32N 48°06' W 122°39'1111.4
2016-Jun-10 23:34N 47°56' W 122°31'1212.4
2016-Jun-10 22:33N 47°45' W 122°25'5 5.2
2016-Jun-10 21:33N 47°40' W 122°23'0 0.4
2016-Jun-10 20:31N 47°39' W 122°23'0 0.0
2016-Jun-10 19:32N 47°39' W 122°23'0 0.0
2016-Jun-10 18:32N 47°39' W 122°23'0 0.0
2016-Jun-10 17:32N 47°39' W 122°23'0 0.0
2016-Jun-10 16:32N 47°39' W 122°23'0 0.0
2016-Jun-10 15:32N 47°39' W 122°23'0 0.0
2016-Jun-10 14:32N 47°39' W 122°23'0 0.0
2016-Jun-10 13:32N 47°39' W 122°23'0 0.0
2016-Jun-10 12:32N 47°39' W 122°23'0 0.0
2016-Jun-10 11:32N 47°39' W 122°23'0 0.0
2016-Jun-10 10:28N 47°39' W 122°23'0 0.0
2016-Jun-10 09:31N 47°39' W 122°23'0 0.0
2016-Jun-10 08:32N 47°39' W 122°23'0 0.0
2016-Jun-10 07:32N 47°39' W 122°23'0 0.0
2016-Jun-10 06:31N 47°39' W 122°23'0 0.0
2016-Jun-10 05:31N 47°39' W 122°23'0 0.0
2016-Jun-10 04:31N 47°39' W 122°23'0 0.0
2016-Jun-10 03:31N 47°39' W 122°23'0 0.0
2016-Jun-10 02:31N 47°39' W 122°23'0 0.0
2016-Jun-10 01:31N 47°39' W 122°23'0 0.0
2016-Jun-10 00:31N 47°39' W 122°23'0 0.0
2016-Jun-09 23:31N 47°39' W 122°23'0 0.0
2016-Jun-09 22:31N 47°39' W 122°23'0 0.0
2016-Jun-09 21:32N 47°39' W 122°23'0 0.0
2016-Jun-09 20:31N 47°39' W 122°23'0 0.0
2016-Jun-09 19:31N 47°39' W 122°23'0 0.0
2016-Jun-09 18:29N 47°39' W 122°23'0 0.0
2016-Jun-09 17:32N 47°39' W 122°23'0 0.0
2016-Jun-09 16:32N 47°39' W 122°23'0 0.0
2016-Jun-09 15:32N 47°39' W 122°23'0 0.0
2016-Jun-09 14:32N 47°39' W 122°23'0 0.0
2016-Jun-09 13:32N 47°39' W 122°23'0 0.0
2016-Jun-09 12:33N 47°39' W 122°23'0 0.0
2016-Jun-09 11:32N 47°39' W 122°23'0 0.0
2016-Jun-09 10:31N 47°39' W 122°23'0 0.0
2016-Jun-09 09:32N 47°39' W 122°23'0 0.0
2016-Jun-09 08:31N 47°39' W 122°23'0 0.0
2016-Jun-09 07:32N 47°39' W 122°23'0 0.0
2016-Jun-09 06:31N 47°39' W 122°23'0 0.0
2016-Jun-09 05:32N 47°39' W 122°23'0 0.0
2016-Jun-09 04:31N 47°39' W 122°23'0 0.0
2016-Jun-09 03:31N 47°39' W 122°23'0 0.0
2016-Jun-09 02:31N 47°39' W 122°23'0 0.0
2016-Jun-09 01:32N 47°39' W 122°23'0 0.0
2016-Jun-09 00:32N 47°39' W 122°23'0 0.0
2016-Jun-08 23:31N 47°39' W 122°23'0 0.0
2016-Jun-08 22:31N 47°39' W 122°23'0 0.0
2016-Jun-08 21:32N 47°39' W 122°23'0 0.0
2016-Jun-08 20:29N 47°39' W 122°23'0 0.0
2016-Jun-08 19:32N 47°39' W 122°23'0 0.0
2016-Jun-08 18:32N 47°39' W 122°23'0 0.0
2016-Jun-08 17:32N 47°39' W 122°23'0 0.0
2016-Jun-08 16:32N 47°39' W 122°23'0 0.0
2016-Jun-08 15:32N 47°39' W 122°23'0 0.0
2016-Jun-08 14:31N 47°39' W 122°23'0 0.0
2016-Jun-08 13:31N 47°39' W 122°23'0 0.0
2016-Jun-08 12:31N 47°39' W 122°23'0 0.0
2016-Jun-08 11:32N 47°39' W 122°23'0 0.0
2016-Jun-08 10:31N 47°39' W 122°23'0 0.0
2016-Jun-08 09:31N 47°39' W 122°23'0 0.0
2016-Jun-08 08:31N 47°39' W 122°23'0 0.0
2016-Jun-08 07:31N 47°39' W 122°23'0 0.0
2016-Jun-08 06:31N 47°39' W 122°23'0 0.0
2016-Jun-08 05:31N 47°39' W 122°23'0 0.0
2016-Jun-08 04:29N 47°39' W 122°23'0 0.0
2016-Jun-08 03:31N 47°39' W 122°23'0 0.0
2016-Jun-08 02:31N 47°39' W 122°23'0 0.0
2016-Jun-08 01:32N 47°39' W 122°23'0 0.0
2016-Jun-08 00:28N 47°39' W 122°23'0 0.0
2016-Jun-07 23:32N 47°39' W 122°23'0 0.0
2016-Jun-07 22:29N 47°39' W 122°23'0 0.0
2016-Jun-07 21:25N 47°39' W 122°23'0 0.0
2016-Jun-07 20:31N 47°39' W 122°23'0 0.0
2016-Jun-07 19:31N 47°39' W 122°23'0 0.0
2016-Jun-07 18:32N 47°39' W 122°23'0 0.0
2016-Jun-07 17:31N 47°39' W 122°23'0 0.0
2016-Jun-07 16:31N 47°39' W 122°23'0 0.0
2016-Jun-07 15:32N 47°39' W 122°23'0 0.0
2016-Jun-07 14:31N 47°39' W 122°23'0 0.0
2016-Jun-07 13:32N 47°39' W 122°23'0 0.0
2016-Jun-07 12:32N 47°39' W 122°23'0 0.0
2016-Jun-07 11:32N 47°39' W 122°23'0 0.0
2016-Jun-07 10:32N 47°39' W 122°23'0 0.0
2016-Jun-07 09:31N 47°39' W 122°23'0 0.0
2016-Jun-07 08:31N 47°39' W 122°23'0 0.0
2016-Jun-07 07:31N 47°39' W 122°23'0 0.0
2016-Jun-07 06:31N 47°39' W 122°23'0 0.0
2016-Jun-07 05:31N 47°39' W 122°23'0 0.0
2016-Jun-07 04:31N 47°39' W 122°23'0 0.0
2016-Jun-07 03:31N 47°39' W 122°23'0 0.0
2016-Jun-07 02:31N 47°39' W 122°23'0 0.0
2016-Jun-07 01:31N 47°39' W 122°23'0 0.0
2016-Jun-07 00:31N 47°39' W 122°23'0 0.0
2016-Jun-06 23:31N 47°39' W 122°23'0 0.0
2016-Jun-06 22:31N 47°39' W 122°23'0 0.0
2016-Jun-06 21:31N 47°39' W 122°23'0 0.0
2016-Jun-06 20:32N 47°39' W 122°23'0 0.0
2016-Jun-06 19:31N 47°39' W 122°23'0 0.0
2016-Jun-06 18:32N 47°39' W 122°23'0 0.0
2016-Jun-06 17:28N 47°39' W 122°23'0 0.0
2016-Jun-06 16:31N 47°39' W 122°23'0 0.0
2016-Jun-06 15:31N 47°39' W 122°23'0 0.0
2016-Jun-06 14:32N 47°39' W 122°23'0 0.0
2016-Jun-06 13:32N 47°39' W 122°23'0 0.0
2016-Jun-06 12:23N 47°39' W 122°23'0 0.0
2016-Jun-06 11:31N 47°39' W 122°23'0 0.0
2016-Jun-06 10:31N 47°39' W 122°23'0 0.0
2016-Jun-06 09:31N 47°39' W 122°23'0 0.0
2016-Jun-06 08:31N 47°39' W 122°23'0 0.0
2016-Jun-06 07:28N 47°39' W 122°23'0 0.0
2016-Jun-06 06:31N 47°39' W 122°23'0 0.0
2016-Jun-06 05:31N 47°39' W 122°23'0 0.0
2016-Jun-06 04:31N 47°39' W 122°23'0 0.0
2016-Jun-06 03:31N 47°39' W 122°23'0 0.0
2016-Jun-06 02:31N 47°39' W 122°23'0 0.0
2016-Jun-06 01:31N 47°39' W 122°23'0 0.0
2016-Jun-06 00:28N 47°39' W 122°23'0 0.0
2016-Jun-05 23:32N 47°39' W 122°23'0 0.0
2016-Jun-05 22:32N 47°39' W 122°23'0 0.0
2016-Jun-05 21:31N 47°39' W 122°23'0 0.0
2016-Jun-05 20:31N 47°39' W 122°23'0 0.0
2016-Jun-05 19:31N 47°39' W 122°23'0 0.0
2016-Jun-05 18:28N 47°39' W 122°23'0 0.0
2016-Jun-05 17:31N 47°39' W 122°23'0 0.0
2016-Jun-05 16:31N 47°39' W 122°23'0 0.0
2016-Jun-05 15:31N 47°39' W 122°23'0 0.0
2016-Jun-05 14:31N 47°39' W 122°23'0 0.0
2016-Jun-05 13:32N 47°39' W 122°23'0 0.0
2016-Jun-05 12:31N 47°39' W 122°23'0 0.0
2016-Jun-05 11:32N 47°39' W 122°23'0 0.0
2016-Jun-05 10:31N 47°39' W 122°23'0 0.0
2016-Jun-05 09:31N 47°39' W 122°23'0 0.0
2016-Jun-05 08:31N 47°39' W 122°23'0 0.0
2016-Jun-05 07:31N 47°39' W 122°23'0 0.0
2016-Jun-05 06:32N 47°39' W 122°23'0 0.0
2016-Jun-05 05:31N 47°39' W 122°23'0 0.0
2016-Jun-05 04:31N 47°39' W 122°23'0 0.0
2016-Jun-05 03:31N 47°39' W 122°23'0 0.0
2016-Jun-05 02:32N 47°39' W 122°23'0 0.0
2016-Jun-05 01:31N 47°39' W 122°23'0 0.0
2016-Jun-05 00:31N 47°39' W 122°23'0 0.0
2016-Jun-04 23:31N 47°39' W 122°23'0 0.0
2016-Jun-04 22:31N 47°39' W 122°23'0 0.0
2016-Jun-04 21:31N 47°39' W 122°23'0 0.0
2016-Jun-04 20:31N 47°39' W 122°23'0 0.0
2016-Jun-04 19:31N 47°39' W 122°23'0 0.0
2016-Jun-04 18:31N 47°39' W 122°23'0 0.0
2016-Jun-04 17:32N 47°39' W 122°23'0 0.0
2016-Jun-04 16:31N 47°39' W 122°23'0 0.0
2016-Jun-04 15:31N 47°39' W 122°23'0 0.0
2016-Jun-04 14:31N 47°39' W 122°23'0 0.0
2016-Jun-04 13:31N 47°39' W 122°23'0 0.0
2016-Jun-04 12:32N 47°39' W 122°23'0 0.0
2016-Jun-04 11:32N 47°39' W 122°23'0 0.0
2016-Jun-04 10:32N 47°39' W 122°23'0 0.0
2016-Jun-04 09:32N 47°39' W 122°23'0 0.0
2016-Jun-04 08:28N 47°39' W 122°23'0 0.0
2016-Jun-04 07:32N 47°39' W 122°23'0 0.0
2016-Jun-04 06:31N 47°39' W 122°23'0 0.0
2016-Jun-04 05:32N 47°39' W 122°23'0 0.0
2016-Jun-04 04:28N 47°39' W 122°23'0 0.0
2016-Jun-04 03:31N 47°39' W 122°23'0 0.0
2016-Jun-04 02:31N 47°39' W 122°23'0 0.0
2016-Jun-04 01:29N 47°39' W 122°23'0 0.0
2016-Jun-04 00:32N 47°39' W 122°23'0 0.0
2016-Jun-03 23:32N 47°39' W 122°23'0 0.0
2016-Jun-03 22:32N 47°39' W 122°23'0 0.0
2016-Jun-03 21:32N 47°39' W 122°23'0 0.0
2016-Jun-03 20:32N 47°39' W 122°23'0 0.0
2016-Jun-03 19:31N 47°39' W 122°23'0 0.0
2016-Jun-03 18:31N 47°39' W 122°23'0 0.0
2016-Jun-03 17:32N 47°39' W 122°23'0 0.0
2016-Jun-03 16:31N 47°39' W 122°23'0 0.0
2016-Jun-03 15:31N 47°39' W 122°23'0 0.0
2016-Jun-03 14:31N 47°39' W 122°23'0 0.0
2016-Jun-03 13:29N 47°39' W 122°23'0 0.0
2016-Jun-03 12:31N 47°39' W 122°23'0 0.0
2016-Jun-03 11:31N 47°39' W 122°23'0 0.0
2016-Jun-03 10:31N 47°39' W 122°23'0 0.0
2016-Jun-03 09:31N 47°39' W 122°23'0 0.0
2016-Jun-03 08:31N 47°39' W 122°23'0 0.0
2016-Jun-03 07:31N 47°39' W 122°23'0 0.0
2016-Jun-03 06:32N 47°39' W 122°23'0 0.0
2016-Jun-03 05:31N 47°39' W 122°23'0 0.0
2016-Jun-03 04:32N 47°39' W 122°23'0 0.0
2016-Jun-03 03:31N 47°39' W 122°23'0 0.0
2016-Jun-03 02:32N 47°39' W 122°23'0 0.0
2016-Jun-03 01:31N 47°39' W 122°23'0 0.0
2016-Jun-03 00:31N 47°39' W 122°23'0 0.0
2016-Jun-02 23:31N 47°39' W 122°23'0 0.0
2016-Jun-02 22:31N 47°39' W 122°23'0 0.0
2016-Jun-02 21:31N 47°39' W 122°23'0 0.0
2016-Jun-02 20:31N 47°39' W 122°23'0 0.0
2016-Jun-02 19:32N 47°39' W 122°23'  
Track history (hours):
 
Tides and Currents Weather Stations Pressure Air Temp Water Temp Dewpoint Dewpoint Depression Visibility Wind Speed Wind Dir Waves Ship Positions

Coastal Nomad

Owner: Coastal Transportation, Inc., Seattle, WA. More information available from US FCC via Universal Licensing System and Coast Guard Vessel Documentation Center.

Last reported at 2016-Jun-12 01:08 UTC. Time now 2016-Jun-30 03:25 UTC.
Position N 51°03' W 127°58'.
Warning: this ship's position is 18 days out of date.

Length 74 m; draft 4.2 m.

Type: Cargo ship. MMSI: 303683000.

Date/timePositionNaut miles runAvg speedWind from/ knotsBaromVisibWave heightAir tempDewpointWater temp
2016-Jun-12 01:08N 51°03' W 127°58'611.3
2016-Jun-12 00:33N 50°59' W 127°50'1211.9
2016-Jun-11 23:33N 50°53' W 127°34'1212.1
2016-Jun-11 22:33N 50°47' W 127°17'1212.2
2016-Jun-11 21:32N 50°43' W 126°59'1212.1
2016-Jun-11 20:32N 50°36' W 126°43'5111.9
2016-Jun-11 16:17N 50°20' W 125°27'811.1
2016-Jun-11 15:33N 50°13' W 125°22'10 9.6
2016-Jun-11 14:34N 50°04' W 125°16'9 9.2
2016-Jun-11 13:33N 49°57' W 125°07'1312.6
2016-Jun-11 12:34N 49°49' W 124°52'1212.4
2016-Jun-11 11:33N 49°41' W 124°38'1212.3
2016-Jun-11 10:34N 49°34' W 124°22'1212.3
2016-Jun-11 09:34N 49°27' W 124°06'1212.3
2016-Jun-11 08:33N 49°20' W 123°51'1211.7
2016-Jun-11 07:33N 49°13' W 123°37'1212.3
2016-Jun-11 06:34N 49°05' W 123°23'1211.9
2016-Jun-11 05:33N 48°57' W 123°09'1312.6
2016-Jun-11 04:33N 48°49' W 122°54'1211.9
2016-Jun-11 03:34N 48°40' W 122°42'1414.4
2016-Jun-11 02:34N 48°26' W 122°44'1211.8
2016-Jun-11 01:34N 48°14' W 122°48'10 9.5
2016-Jun-11 00:32N 48°06' W 122°39'1111.4
2016-Jun-10 23:34N 47°56' W 122°31'1212.4
2016-Jun-10 22:33N 47°45' W 122°25'5 5.2
2016-Jun-10 21:33N 47°40' W 122°23'0 0.4
2016-Jun-10 20:31N 47°39' W 122°23'0 0.0
2016-Jun-10 19:32N 47°39' W 122°23'0 0.0
2016-Jun-10 18:32N 47°39' W 122°23'0 0.0
2016-Jun-10 17:32N 47°39' W 122°23'0 0.0
2016-Jun-10 16:32N 47°39' W 122°23'0 0.0
2016-Jun-10 15:32N 47°39' W 122°23'0 0.0
2016-Jun-10 14:32N 47°39' W 122°23'0 0.0
2016-Jun-10 13:32N 47°39' W 122°23'0 0.0
2016-Jun-10 12:32N 47°39' W 122°23'0 0.0
2016-Jun-10 11:32N 47°39' W 122°23'0 0.0
2016-Jun-10 10:28N 47°39' W 122°23'0 0.0
2016-Jun-10 09:31N 47°39' W 122°23'0 0.0
2016-Jun-10 08:32N 47°39' W 122°23'0 0.0
2016-Jun-10 07:32N 47°39' W 122°23'0 0.0
2016-Jun-10 06:31N 47°39' W 122°23'0 0.0
2016-Jun-10 05:31N 47°39' W 122°23'0 0.0
2016-Jun-10 04:31N 47°39' W 122°23'0 0.0
2016-Jun-10 03:31N 47°39' W 122°23'0 0.0
2016-Jun-10 02:31N 47°39' W 122°23'0 0.0
2016-Jun-10 01:31N 47°39' W 122°23'0 0.0
2016-Jun-10 00:31N 47°39' W 122°23'0 0.0
2016-Jun-09 23:31N 47°39' W 122°23'0 0.0
2016-Jun-09 22:31N 47°39' W 122°23'0 0.0
2016-Jun-09 21:32N 47°39' W 122°23'0 0.0
2016-Jun-09 20:31N 47°39' W 122°23'0 0.0
2016-Jun-09 19:31N 47°39' W 122°23'0 0.0
2016-Jun-09 18:29N 47°39' W 122°23'0 0.0
2016-Jun-09 17:32N 47°39' W 122°23'0 0.0
2016-Jun-09 16:32N 47°39' W 122°23'0 0.0
2016-Jun-09 15:32N 47°39' W 122°23'0 0.0
2016-Jun-09 14:32N 47°39' W 122°23'0 0.0
2016-Jun-09 13:32N 47°39' W 122°23'0 0.0
2016-Jun-09 12:33N 47°39' W 122°23'0 0.0
2016-Jun-09 11:32N 47°39' W 122°23'0 0.0
2016-Jun-09 10:31N 47°39' W 122°23'0 0.0
2016-Jun-09 09:32N 47°39' W 122°23'0 0.0
2016-Jun-09 08:31N 47°39' W 122°23'0 0.0
2016-Jun-09 07:32N 47°39' W 122°23'0 0.0
2016-Jun-09 06:31N 47°39' W 122°23'0 0.0
2016-Jun-09 05:32N 47°39' W 122°23'0 0.0
2016-Jun-09 04:31N 47°39' W 122°23'0 0.0
2016-Jun-09 03:31N 47°39' W 122°23'0 0.0
2016-Jun-09 02:31N 47°39' W 122°23'0 0.0
2016-Jun-09 01:32N 47°39' W 122°23'0 0.0
2016-Jun-09 00:32N 47°39' W 122°23'0 0.0
2016-Jun-08 23:31N 47°39' W 122°23'0 0.0
2016-Jun-08 22:31N 47°39' W 122°23'0 0.0
2016-Jun-08 21:32N 47°39' W 122°23'0 0.0
2016-Jun-08 20:29N 47°39' W 122°23'0 0.0
2016-Jun-08 19:32N 47°39' W 122°23'0 0.0
2016-Jun-08 18:32N 47°39' W 122°23'0 0.0
2016-Jun-08 17:32N 47°39' W 122°23'0 0.0
2016-Jun-08 16:32N 47°39' W 122°23'0 0.0
2016-Jun-08 15:32N 47°39' W 122°23'0 0.0
2016-Jun-08 14:31N 47°39' W 122°23'0 0.0
2016-Jun-08 13:31N 47°39' W 122°23'0 0.0
2016-Jun-08 12:31N 47°39' W 122°23'0 0.0
2016-Jun-08 11:32N 47°39' W 122°23'0 0.0
2016-Jun-08 10:31N 47°39' W 122°23'0 0.0
2016-Jun-08 09:31N 47°39' W 122°23'0 0.0
2016-Jun-08 08:31N 47°39' W 122°23'0 0.0
2016-Jun-08 07:31N 47°39' W 122°23'0 0.0
2016-Jun-08 06:31N 47°39' W 122°23'0 0.0
2016-Jun-08 05:31N 47°39' W 122°23'0 0.0
2016-Jun-08 04:29N 47°39' W 122°23'0 0.0
2016-Jun-08 03:31N 47°39' W 122°23'0 0.0
2016-Jun-08 02:31N 47°39' W 122°23'0 0.0
2016-Jun-08 01:32N 47°39' W 122°23'0 0.0
2016-Jun-08 00:28N 47°39' W 122°23'0 0.0
2016-Jun-07 23:32N 47°39' W 122°23'0 0.0
2016-Jun-07 22:29N 47°39' W 122°23'0 0.0
2016-Jun-07 21:25N 47°39' W 122°23'0 0.0
2016-Jun-07 20:31N 47°39' W 122°23'0 0.0
2016-Jun-07 19:31N 47°39' W 122°23'0 0.0
2016-Jun-07 18:32N 47°39' W 122°23'0 0.0
2016-Jun-07 17:31N 47°39' W 122°23'0 0.0
2016-Jun-07 16:31N 47°39' W 122°23'0 0.0
2016-Jun-07 15:32N 47°39' W 122°23'0 0.0
2016-Jun-07 14:31N 47°39' W 122°23'0 0.0
2016-Jun-07 13:32N 47°39' W 122°23'0 0.0
2016-Jun-07 12:32N 47°39' W 122°23'0 0.0
2016-Jun-07 11:32N 47°39' W 122°23'0 0.0
2016-Jun-07 10:32N 47°39' W 122°23'0 0.0
2016-Jun-07 09:31N 47°39' W 122°23'0 0.0
2016-Jun-07 08:31N 47°39' W 122°23'0 0.0
2016-Jun-07 07:31N 47°39' W 122°23'0 0.0
2016-Jun-07 06:31N 47°39' W 122°23'0 0.0
2016-Jun-07 05:31N 47°39' W 122°23'0 0.0
2016-Jun-07 04:31N 47°39' W 122°23'0 0.0
2016-Jun-07 03:31N 47°39' W 122°23'0 0.0
2016-Jun-07 02:31N 47°39' W 122°23'0 0.0
2016-Jun-07 01:31N 47°39' W 122°23'0 0.0
2016-Jun-07 00:31N 47°39' W 122°23'0 0.0
2016-Jun-06 23:31N 47°39' W 122°23'0 0.0
2016-Jun-06 22:31N 47°39' W 122°23'0 0.0
2016-Jun-06 21:31N 47°39' W 122°23'0 0.0
2016-Jun-06 20:32N 47°39' W 122°23'0 0.0
2016-Jun-06 19:31N 47°39' W 122°23'0 0.0
2016-Jun-06 18:32N 47°39' W 122°23'0 0.0
2016-Jun-06 17:28N 47°39' W 122°23'0 0.0
2016-Jun-06 16:31N 47°39' W 122°23'0 0.0
2016-Jun-06 15:31N 47°39' W 122°23'0 0.0
2016-Jun-06 14:32N 47°39' W 122°23'0 0.0
2016-Jun-06 13:32N 47°39' W 122°23'0 0.0
2016-Jun-06 12:23N 47°39' W 122°23'0 0.0
2016-Jun-06 11:31N 47°39' W 122°23'0 0.0
2016-Jun-06 10:31N 47°39' W 122°23'0 0.0
2016-Jun-06 09:31N 47°39' W 122°23'0 0.0
2016-Jun-06 08:31N 47°39' W 122°23'0 0.0
2016-Jun-06 07:28N 47°39' W 122°23'0 0.0
2016-Jun-06 06:31N 47°39' W 122°23'0 0.0
2016-Jun-06 05:31N 47°39' W 122°23'0 0.0
2016-Jun-06 04:31N 47°39' W 122°23'0 0.0
2016-Jun-06 03:31N 47°39' W 122°23'0 0.0
2016-Jun-06 02:31N 47°39' W 122°23'0 0.0
2016-Jun-06 01:31N 47°39' W 122°23'0 0.0
2016-Jun-06 00:28N 47°39' W 122°23'0 0.0
2016-Jun-05 23:32N 47°39' W 122°23'0 0.0
2016-Jun-05 22:32N 47°39' W 122°23'0 0.0
2016-Jun-05 21:31N 47°39' W 122°23'0 0.0
2016-Jun-05 20:31N 47°39' W 122°23'0 0.0
2016-Jun-05 19:31N 47°39' W 122°23'0 0.0
2016-Jun-05 18:28N 47°39' W 122°23'0 0.0
2016-Jun-05 17:31N 47°39' W 122°23'0 0.0
2016-Jun-05 16:31N 47°39' W 122°23'0 0.0
2016-Jun-05 15:31N 47°39' W 122°23'0 0.0
2016-Jun-05 14:31N 47°39' W 122°23'0 0.0
2016-Jun-05 13:32N 47°39' W 122°23'0 0.0
2016-Jun-05 12:31N 47°39' W 122°23'0 0.0
2016-Jun-05 11:32N 47°39' W 122°23'0 0.0
2016-Jun-05 10:31N 47°39' W 122°23'0 0.0
2016-Jun-05 09:31N 47°39' W 122°23'0 0.0
2016-Jun-05 08:31N 47°39' W 122°23'0 0.0
2016-Jun-05 07:31N 47°39' W 122°23'0 0.0
2016-Jun-05 06:32N 47°39' W 122°23'0 0.0
2016-Jun-05 05:31N 47°39' W 122°23'0 0.0
2016-Jun-05 04:31N 47°39' W 122°23'0 0.0
2016-Jun-05 03:31N 47°39' W 122°23'0 0.0
2016-Jun-05 02:32N 47°39' W 122°23'0 0.0
2016-Jun-05 01:31N 47°39' W 122°23'0 0.0
2016-Jun-05 00:31N 47°39' W 122°23'0 0.0
2016-Jun-04 23:31N 47°39' W 122°23'0 0.0
2016-Jun-04 22:31N 47°39' W 122°23'0 0.0
2016-Jun-04 21:31N 47°39' W 122°23'0 0.0
2016-Jun-04 20:31N 47°39' W 122°23'0 0.0
2016-Jun-04 19:31N 47°39' W 122°23'0 0.0
2016-Jun-04 18:31N 47°39' W 122°23'0 0.0
2016-Jun-04 17:32N 47°39' W 122°23'0 0.0
2016-Jun-04 16:31N 47°39' W 122°23'0 0.0
2016-Jun-04 15:31N 47°39' W 122°23'0 0.0
2016-Jun-04 14:31N 47°39' W 122°23'0 0.0
2016-Jun-04 13:31N 47°39' W 122°23'0 0.0
2016-Jun-04 12:32N 47°39' W 122°23'0 0.0
2016-Jun-04 11:32N 47°39' W 122°23'0 0.0
2016-Jun-04 10:32N 47°39' W 122°23'0 0.0
2016-Jun-04 09:32N 47°39' W 122°23'0 0.0
2016-Jun-04 08:28N 47°39' W 122°23'0 0.0
2016-Jun-04 07:32N 47°39' W 122°23'0 0.0
2016-Jun-04 06:31N 47°39' W 122°23'0 0.0
2016-Jun-04 05:32N 47°39' W 122°23'0 0.0
2016-Jun-04 04:28N 47°39' W 122°23'0 0.0
2016-Jun-04 03:31N 47°39' W 122°23'0 0.0
2016-Jun-04 02:31N 47°39' W 122°23'0 0.0
2016-Jun-04 01:29N 47°39' W 122°23'0 0.0
2016-Jun-04 00:32N 47°39' W 122°23'0 0.0
2016-Jun-03 23:32N 47°39' W 122°23'0 0.0
2016-Jun-03 22:32N 47°39' W 122°23'0 0.0
2016-Jun-03 21:32N 47°39' W 122°23'0 0.0
2016-Jun-03 20:32N 47°39' W 122°23'0 0.0
2016-Jun-03 19:31N 47°39' W 122°23'0 0.0
2016-Jun-03 18:31N 47°39' W 122°23'0 0.0
2016-Jun-03 17:32N 47°39' W 122°23'0 0.0
2016-Jun-03 16:31N 47°39' W 122°23'0 0.0
2016-Jun-03 15:31N 47°39' W 122°23'0 0.0
2016-Jun-03 14:31N 47°39' W 122°23'0 0.0
2016-Jun-03 13:29N 47°39' W 122°23'0 0.0
2016-Jun-03 12:31N 47°39' W 122°23'0 0.0
2016-Jun-03 11:31N 47°39' W 122°23'0 0.0
2016-Jun-03 10:31N 47°39' W 122°23'0 0.0
2016-Jun-03 09:31N 47°39' W 122°23'0 0.0
2016-Jun-03 08:31N 47°39' W 122°23'0 0.0
2016-Jun-03 07:31N 47°39' W 122°23'0 0.0
2016-Jun-03 06:32N 47°39' W 122°23'0 0.0
2016-Jun-03 05:31N 47°39' W 122°23'0 0.0
2016-Jun-03 04:32N 47°39' W 122°23'0 0.0
2016-Jun-03 03:31N 47°39' W 122°23'0 0.0
2016-Jun-03 02:32N 47°39' W 122°23'0 0.0
2016-Jun-03 01:31N 47°39' W 122°23'0 0.0
2016-Jun-03 00:31N 47°39' W 122°23'0 0.0
2016-Jun-02 23:31N 47°39' W 122°23'0 0.0
2016-Jun-02 22:31N 47°39' W 122°23'0 0.0
2016-Jun-02 21:31N 47°39' W 122°23'0 0.0
2016-Jun-02 20:31N 47°39' W 122°23'0 0.0
2016-Jun-02 19:32N 47°39' W 122°23'  

Dump ship's entire track history